KBOS/BOS METAR and TAF weather

Enter ICAO airport designator
Station Type Date Time Source
KBOS METAR 2018/12/12 23:54 UTC NOAA

KBOS 122354Z 33012KT 10SM SCT250 M01/M14 A3024 RMK AO2 SLP240 T10111144 10033 21011 53045


Station Type Date Time Source
KBOS Decoded METAR 2018/12/12 23:54 UTC NOAA

BOSTON LOGAN INTERNATIONAL, MA, United States (KBOS) 42-22N 071-01W 54M
Dec 12, 2018 - 06:54 PM EST / 2018.12.12 2354 UTC
Wind: from the NNW (330 degrees) at 14 MPH (12 KT):0
Visibility: 10 mile(s):0
Sky conditions: partly cloudy
Temperature: 30.0 F (-1.1 C)
Windchill: 19 F (-7 C):1
Dew Point: 6.1 F (-14.4 C)
Relative Humidity: 35%
Pressure (altimeter): 30.24 in. Hg (1024 hPa)
Pressure tendency: 0.13 inches (4.5 hPa) higher than three hours ago
ob: KBOS 122354Z 33012KT 10SM SCT250 M01/M14 A3024 RMK AO2 SLP240 T10111144 10033 21011 53045
cycle: 0

Station Type Date Time Source
KBOS TAF 2018/12/12 21:12 UTC NOAA

TAF
AMD KBOS 122105Z 1221/1324 32010G18KT P6SM FEW050
FM122300 34010KT P6SM FEW250
FM130200 35006KT P6SM SKC
FM131200 02006KT P6SM BKN025
FM131600 11006KT P6SM BKN025
FM132200 16004KT P6SM BKN030
FM132300 15004KT P6SM BKN040


Example: see airport list